KMIV

Millville Municipal Airport

Millville, New Jersey, USA
METAR KMIV 171554Z AUTO VRB04KT 10SM CLR 31/23 A3007 RMK AO2 SLP179 T03060233
Observed Flight Rules
Aug-17 @ 15:54 UTC (58 minutes ago) Visual Flight Rules
Wind Visibility Clouds
Variable at 4 knots 10 miles
  • Clear skies
Temperatures Readings
Current 31°C / 88°F
Dewpoint 23°C / 73°F
Humidity 62%
Altimeter 30.07" Hg
Pressure 1017.9 hPa
Elevation 23
METAR KMIV 171554Z AUTO VRB04KT 10SM CLR 31/23 A3007 RMK AO2 SLP179 T03060233
Observed Flight Rules
Aug-17 @ 15:54 UTC
(58 minutes ago)
VFR
Wind Visibility
Variable at 4 knots 10 miles
Clouds
  • Clear skies
Temperature Dewpoint
31°C / 88°F 23°C / 73°F
Humidity Altimeter Pressure
62% 30.07" Hg 1017.9 hPa